Time;durP1;ratioP1;P1;durP2;ratioP2;P2;SDS_P1;SDS_P2;PMS_P1;PMS_P2;Temp;Humidity;BMP_temperature;BMP_pressure;BME280_temperature;BME280_humidity;BME280_pressure;Samples;Min_cycle;Max_cycle;Signal;HPM_P1;HPM_P2
2023/03/16 00:00:52;;;;;;;3.90;2.05;;;;;;;9.20;37.63;99535.66;4417155;32;31931;-63
2023/03/16 00:03:20;;;;;;;1.98;1.48;;;;;;;8.91;36.51;99540.44;4417841;32;31861;-64
2023/03/16 00:05:50;;;;;;;2.55;1.60;;;;;;;8.88;37.59;99543.31;4416574;32;34985;-64
2023/03/16 00:08:18;;;;;;;2.45;2.03;;;;;;;8.89;36.42;99545.00;4414186;32;34986;-63
2023/03/16 00:10:46;;;;;;;4.07;2.12;;;;;;;8.78;37.43;99543.97;4418901;32;33492;-66
2023/03/16 00:13:15;;;;;;;10.20;2.67;;;;;;;8.26;38.44;99546.69;4410033;32;33418;-66
2023/03/16 00:15:54;;;;;;;3.97;2.15;;;;;;;8.13;39.02;99552.88;4414171;32;34763;-64
2023/03/16 00:18:26;;;;;;;4.00;2.42;;;;;;;8.80;36.52;99551.87;4416816;32;32514;-66
2023/03/16 00:20:58;;;;;;;4.00;2.37;;;;;;;8.29;37.78;99559.81;4402633;32;36817;-63
2023/03/16 00:23:26;;;;;;;1.58;1.40;;;;;;;8.37;39.78;99555.66;4415216;32;33570;-64
2023/03/16 00:25:58;;;;;;;1.92;1.48;;;;;;;8.54;37.71;99556.34;4415658;32;33443;-64
2023/03/16 00:28:27;;;;;;;3.45;1.80;;;;;;;8.58;37.12;99560.53;4411247;32;34785;-64
2023/03/16 00:30:57;;;;;;;2.17;1.48;;;;;;;8.37;37.57;99565.47;4417145;32;33872;-63
2023/03/16 00:33:26;;;;;;;2.15;1.95;;;;;;;8.26;38.44;99568.03;4414337;32;33242;-63
2023/03/16 00:36:00;;;;;;;2.72;1.40;;;;;;;8.14;37.50;99556.38;4417472;32;33919;-64
2023/03/16 00:38:33;;;;;;;;;;;;;;;8.17;38.17;99566.84;4417082;32;32327;-64
2023/03/16 00:41:02;;;;;;;1.85;1.40;;;;;;;8.72;36.88;99560.41;4415369;32;34258;-65
2023/03/16 00:43:39;;;;;;;1.87;1.42;;;;;;;8.04;38.39;99568.63;4400159;32;34143;-64
2023/03/16 00:46:12;;;;;;;3.90;1.83;;;;;;;8.83;37.29;99557.00;4416275;32;34135;-64
2023/03/16 00:48:42;;;;;;;3.47;1.95;;;;;;;8.67;37.11;99561.66;4416348;32;33983;-67
2023/03/16 00:51:15;;;;;;;5.30;1.62;;;;;;;8.62;36.17;99549.50;4417564;32;33508;-66
2023/03/16 00:53:44;;;;;;;5.82;1.87;;;;;;;8.17;38.64;99561.50;4415752;32;34566;-67
2023/03/16 00:56:12;;;;;;;16.33;2.53;;;;;;;8.06;37.76;99564.91;4416485;32;33688;-68
2023/03/16 00:58:41;;;;;;;2.40;2.03;;;;;;;8.41;37.38;99561.69;4416686;32;34335;-67
2023/03/16 01:01:13;;;;;;;8.82;3.72;;;;;;;8.20;37.04;99566.63;4417429;32;33269;-66
2023/03/16 01:03:41;;;;;;;2.35;1.33;;;;;;;7.96;37.75;99565.59;4413203;32;34297;-65
2023/03/16 01:06:15;;;;;;;6.10;3.50;;;;;;;6.98;42.84;99567.50;4415912;32;33520;-66
2023/03/16 01:08:44;;;;;;;2.47;1.87;;;;;;;7.44;41.90;99565.41;4415068;32;35038;-66
2023/03/16 01:11:16;;;;;;;9.77;3.15;;;;;;;6.62;42.84;99574.16;4419552;32;34521;-67
2023/03/16 01:13:45;;;;;;;4.82;1.92;;;;;;;6.59;43.93;99582.31;4403673;32;32108;-67
2023/03/16 01:16:14;;;;;;;7.35;3.17;;;;;;;7.59;40.13;99573.38;4418549;32;34791;-68
2023/03/16 01:18:42;;;;;;;2.53;1.27;;;;;;;7.99;40.34;99573.41;4416935;32;34005;-66
2023/03/16 01:21:14;;;;;;;3.12;1.42;;;;;;;7.62;40.63;99575.84;4419718;32;34113;-66
2023/03/16 01:23:43;;;;;;;2.83;2.55;;;;;;;7.70;40.52;99577.06;4416796;32;32513;-67
2023/03/16 01:26:11;;;;;;;2.30;1.98;;;;;;;8.19;39.65;99583.59;4414646;32;35198;-66
2023/03/16 01:28:39;;;;;;;12.75;3.15;;;;;;;8.67;38.06;99580.34;4416868;32;33014;-67
2023/03/16 01:31:08;;;;;;;4.12;2.95;;;;;;;8.40;38.14;99589.31;4418969;32;32649;-66
2023/03/16 01:33:37;;;;;;;4.03;3.05;;;;;;;8.70;37.58;99580.13;4418291;32;33276;-66
2023/03/16 01:36:09;;;;;;;2.72;1.85;;;;;;;7.49;40.89;99582.91;4419141;32;34663;-67
2023/03/16 01:38:37;;;;;;;2.47;1.92;;;;;;;8.61;38.02;99587.00;4418457;32;34794;-66
2023/03/16 01:41:05;;;;;;;4.12;2.20;;;;;;;8.90;37.73;99592.09;4419314;32;34723;-66
2023/03/16 01:43:33;;;;;;;9.75;1.65;;;;;;;9.05;36.68;99585.66;4418231;32;34284;-66
2023/03/16 01:46:04;;;;;;;2.08;1.95;;;;;;;7.86;40.23;99592.00;4418378;32;32269;-66
2023/03/16 01:48:36;;;;;;;2.00;1.20;;;;;;;8.62;37.42;99592.19;4417722;32;33774;-67
2023/03/16 01:51:06;;;;;;;3.08;1.95;;;;;;;8.37;38.33;99585.00;4406680;32;34712;-66
2023/03/16 01:53:34;;;;;;;3.12;1.75;;;;;;;8.95;37.30;99581.94;4403576;32;33123;-68
2023/03/16 01:56:07;;;;;;;2.70;2.00;;;;;;;8.62;38.03;99586.88;4404326;32;34907;-68
2023/03/16 01:58:36;;;;;;;4.15;1.70;;;;;;;8.70;37.44;99589.03;4414988;32;34017;-67
2023/03/16 02:01:04;;;;;;;4.28;1.95;;;;;;;8.56;37.43;99591.78;4418744;32;34760;-68
2023/03/16 02:03:35;;;;;;;2.87;1.95;;;;;;;7.90;39.66;99607.72;4417224;32;33236;-66
2023/03/16 02:06:10;;;;;;;4.40;2.40;;;;;;;8.24;39.53;99605.44;4415691;32;34337;-66
2023/03/16 02:08:41;;;;;;;2.73;1.97;;;;;;;8.03;37.96;99609.56;4399592;32;33291;-68
2023/03/16 02:11:09;;;;;;;2.33;1.95;;;;;;;8.75;36.67;99610.88;4405561;32;33959;-67
2023/03/16 02:13:37;;;;;;;2.12;1.77;;;;;;;8.80;36.57;99618.59;4412904;32;33434;-66
2023/03/16 02:16:06;;;;;;;7.55;2.05;;;;;;;8.69;38.15;99624.66;4418319;32;35512;-66
2023/03/16 02:18:34;;;;;;;2.75;1.67;;;;;;;8.93;36.01;99618.59;4415059;32;33893;-66
2023/03/16 02:21:34;;;;;;;3.20;1.60;;;;;;;8.49;38.36;99620.69;4405187;32;32072;-67
2023/03/16 02:24:03;;;;;;;2.67;1.83;;;;;;;8.65;38.38;99636.50;4416326;32;33538;-66
2023/03/16 02:27:07;;;;;;;2.70;2.05;;;;;;;9.17;36.32;99619.50;4417388;32;33716;-65
2023/03/16 02:30:01;;;;;;;3.08;2.30;;;;;;;8.75;38.75;99634.91;4355100;32;35268;-66
2023/03/16 02:32:31;;;;;;;3.50;2.35;;;;;;;8.19;39.80;99639.59;4404589;32;34468;-67
2023/03/16 02:35:01;;;;;;;2.53;1.90;;;;;;;8.04;40.53;99638.78;4400892;32;33308;-68
2023/03/16 02:37:28;;;;;;;4.50;2.20;;;;;;;8.54;38.92;99636.34;4404340;32;33570;-67
2023/03/16 02:39:56;;;;;;;1.45;1.20;;;;;;;8.65;37.61;99644.50;4417738;32;33975;-66
2023/03/16 02:42:25;;;;;;;3.05;1.48;;;;;;;8.52;36.79;99647.16;4417455;32;33768;-67
2023/03/16 02:44:57;;;;;;;1.33;1.23;;;;;;;8.59;37.17;99643.09;4403245;32;32253;-70
2023/03/16 02:47:42;;;;;;;3.75;1.95;;;;;;;8.90;37.20;99653.50;4416912;32;33056;-67
2023/03/16 02:50:11;;;;;;;2.35;1.92;;;;;;;9.18;35.79;99661.28;4416858;32;34050;-68
2023/03/16 02:52:40;;;;;;;3.47;3.17;;;;;;;9.33;35.06;99656.66;4419056;32;33351;-67
2023/03/16 02:55:08;;;;;;;8.90;3.30;;;;;;;9.43;35.18;99657.72;4416885;32;33443;-69
2023/03/16 02:57:36;;;;;;;1.20;0.95;;;;;;;9.35;35.23;99659.25;4416877;32;31026;-68
2023/03/16 03:00:10;;;;;;;4.85;2.75;;;;;;;9.31;35.18;99664.81;4417274;32;34121;-71
2023/03/16 03:02:38;;;;;;;4.10;2.45;;;;;;;9.43;34.99;99668.41;4417703;32;35011;-69
2023/03/16 03:05:06;;;;;;;4.28;1.77;;;;;;;9.39;35.20;99666.91;4415808;32;33475;-69
2023/03/16 03:07:33;;;;;;;3.15;2.15;;;;;;;9.39;35.06;99671.41;4417510;32;32771;-69
2023/03/16 03:10:01;;;;;;;1.92;1.70;;;;;;;9.17;35.54;99685.41;4417415;32;32854;-70
2023/03/16 03:12:29;;;;;;;8.18;1.52;;;;;;;8.71;37.15;99697.44;4415210;32;33898;-69
2023/03/16 03:14:57;;;;;;;1.77;1.52;;;;;;;9.16;35.44;99697.06;4417564;32;33336;-68
2023/03/16 03:17:28;;;;;;;3.75;1.77;;;;;;;9.26;35.16;99690.13;4418349;32;33843;-69
2023/03/16 03:19:58;;;;;;;4.05;1.85;;;;;;;9.31;35.07;99696.00;4415762;32;33877;-68
2023/03/16 03:22:26;;;;;;;3.35;2.25;;;;;;;9.03;35.59;99700.59;4417209;32;33896;-68
2023/03/16 03:24:53;;;;;;;3.20;1.50;;;;;;;8.52;38.09;99700.50;4415723;32;32393;-68
2023/03/16 03:27:21;;;;;;;3.53;2.00;;;;;;;8.89;36.95;99708.66;4416685;32;34333;-69
2023/03/16 03:29:51;;;;;;;3.08;2.53;;;;;;;8.86;37.38;99708.91;4414322;32;34074;-68
2023/03/16 03:32:20;;;;;;;3.55;2.40;;;;;;;8.62;37.66;99714.94;4413335;32;33622;-69
2023/03/16 03:34:48;;;;;;;5.10;2.55;;;;;;;9.10;35.73;99709.03;4418773;32;32860;-68
2023/03/16 03:37:16;;;;;;;2.83;2.28;;;;;;;8.93;36.16;99709.34;4417488;32;35007;-66
2023/03/16 03:39:44;;;;;;;2.80;1.92;;;;;;;8.95;36.28;99716.25;4418470;32;33961;-68
2023/03/16 03:42:12;;;;;;;1.80;1.35;;;;;;;9.02;36.34;99720.25;4416369;32;34798;-66
2023/03/16 03:44:40;;;;;;;5.10;2.78;;;;;;;9.21;35.78;99718.94;4418734;32;34087;-67
2023/03/16 03:47:07;;;;;;;3.08;2.28;;;;;;;9.02;35.92;99722.91;4416205;32;33687;-66
2023/03/16 03:49:35;;;;;;;3.40;2.50;;;;;;;9.02;36.11;99728.25;4418066;32;32891;-66
2023/03/16 03:52:03;;;;;;;2.45;1.95;;;;;;;8.77;36.48;99733.56;4416837;32;34099;-67
2023/03/16 03:54:31;;;;;;;5.12;2.50;;;;;;;8.24;37.35;99732.59;4416118;32;34853;-68
2023/03/16 03:56:59;;;;;;;3.10;2.05;;;;;;;8.56;37.34;99742.00;4415027;32;34935;-66
2023/03/16 03:59:26;;;;;;;2.45;2.17;;;;;;;8.77;36.73;99738.88;4415736;32;33793;-66
2023/03/16 04:01:56;;;;;;;2.87;2.33;;;;;;;8.65;36.88;99731.69;4416639;32;32141;-65
2023/03/16 04:04:24;;;;;;;5.82;2.37;;;;;;;8.57;37.88;99742.87;4413577;32;33472;-65
2023/03/16 04:06:52;;;;;;;1.20;1.05;;;;;;;8.71;37.61;99745.47;4417827;32;33500;-66
2023/03/16 04:09:19;;;;;;;1.62;1.23;;;;;;;8.63;37.35;99745.12;4414720;32;35227;-66
2023/03/16 04:11:47;;;;;;;1.92;1.73;;;;;;;8.74;36.95;99739.94;4416461;32;33555;-66
2023/03/16 04:14:14;;;;;;;13.55;2.45;;;;;;;8.68;36.71;99744.84;4418028;32;34029;-65
2023/03/16 04:16:43;;;;;;;5.28;2.78;;;;;;;8.74;36.81;99742.63;4417439;32;32408;-66
2023/03/16 04:19:11;;;;;;;3.00;2.35;;;;;;;7.95;39.02;99740.66;4417282;32;33794;-66
2023/03/16 04:21:39;;;;;;;1.67;1.55;;;;;;;8.40;37.66;99746.66;4416119;32;33769;-67
2023/03/16 04:24:06;;;;;;;3.72;2.75;;;;;;;7.99;38.69;99747.50;4416614;32;33123;-67
2023/03/16 04:26:35;;;;;;;5.30;2.95;;;;;;;8.00;40.37;99743.88;4414899;32;33829;-66
2023/03/16 04:29:03;;;;;;;6.22;4.20;;;;;;;7.72;41.92;99749.25;4418358;32;32734;-64
2023/03/16 04:31:30;;;;;;;6.78;4.37;;;;;;;8.23;38.82;99752.22;4418048;32;33808;-65
2023/03/16 04:33:58;;;;;;;1.95;1.73;;;;;;;7.91;39.73;99752.47;4417782;32;34462;-66
2023/03/16 04:36:26;;;;;;;3.15;2.40;;;;;;;8.35;38.84;99764.75;4416125;32;33586;-67
2023/03/16 04:38:54;;;;;;;3.08;2.78;;;;;;;8.09;39.02;99763.75;4416970;32;34431;-65
2023/03/16 04:41:23;;;;;;;5.55;2.55;;;;;;;8.43;37.80;99764.28;4416743;32;33713;-67
2023/03/16 04:43:51;;;;;;;3.03;1.98;;;;;;;8.17;39.29;99772.97;4414916;32;34520;-64
2023/03/16 04:46:18;;;;;;;7.18;2.47;;;;;;;8.33;38.13;99767.50;4415444;32;32384;-67
2023/03/16 04:48:46;;;;;;;4.05;2.33;;;;;;;7.74;39.32;99765.97;4415896;32;35145;-66
2023/03/16 04:51:14;;;;;;;3.35;2.22;;;;;;;7.68;41.06;99772.56;4418152;32;33957;-66
2023/03/16 04:53:43;;;;;;;6.25;3.53;;;;;;;7.82;39.56;99785.88;4416778;32;34961;-64
2023/03/16 04:56:18;;;;;;;2.55;2.35;;;;;;;7.32;40.34;99789.00;4406021;32;33081;-65
2023/03/16 04:58:48;;;;;;;2.40;1.73;;;;;;;7.44;40.45;99791.75;4418020;32;34248;-66
2023/03/16 05:01:17;;;;;;;2.37;1.85;;;;;;;7.50;40.31;99792.34;4415081;32;33476;-67
2023/03/16 05:03:45;;;;;;;4.25;2.70;;;;;;;7.25;41.04;99783.19;4412330;32;33595;-66
2023/03/16 05:06:13;;;;;;;5.00;2.87;;;;;;;7.30;40.87;99798.91;4408632;32;34934;-65
2023/03/16 05:08:41;;;;;;;14.27;3.90;;;;;;;7.24;41.22;99800.12;4414713;32;33195;-67
2023/03/16 05:11:09;;;;;;;4.53;3.33;;;;;;;7.44;40.48;99805.06;4418782;32;32536;-64
2023/03/16 05:13:37;;;;;;;1.10;1.02;;;;;;;7.49;40.58;99801.31;4417177;32;33961;-63
2023/03/16 05:16:05;;;;;;;2.37;2.12;;;;;;;7.46;40.58;99811.19;4416099;32;34602;-65
2023/03/16 05:18:34;;;;;;;3.72;2.42;;;;;;;7.26;41.44;99810.69;4415302;32;34988;-64
2023/03/16 05:21:01;;;;;;;3.05;2.45;;;;;;;7.26;42.29;99813.34;4416525;32;34873;-64
2023/03/16 05:23:30;;;;;;;3.58;2.55;;;;;;;7.27;41.25;99815.06;4413933;32;33783;-64
2023/03/16 05:25:59;;;;;;;6.85;3.33;;;;;;;7.47;41.15;99825.34;4416587;32;34772;-64
2023/03/16 05:28:27;;;;;;;2.83;2.50;;;;;;;7.46;41.64;99819.16;4417006;32;33915;-64
2023/03/16 05:30:56;;;;;;;2.45;2.25;;;;;;;7.73;40.43;99814.91;4417188;32;32652;-64
2023/03/16 05:33:24;;;;;;;5.15;2.85;;;;;;;7.92;40.36;99821.66;4417507;32;33581;-65
2023/03/16 05:35:53;;;;;;;4.35;3.03;;;;;;;8.09;39.51;99817.94;4414402;32;34336;-64
2023/03/16 05:38:21;;;;;;;3.15;1.83;;;;;;;8.01;40.55;99814.91;4414599;32;33996;-64
2023/03/16 05:40:51;;;;;;;3.53;1.70;;;;;;;8.09;39.94;99811.72;4417238;32;33887;-64
2023/03/16 05:43:21;;;;;;;5.90;1.52;;;;;;;8.11;40.24;99808.03;4415620;32;34542;-64
2023/03/16 05:45:49;;;;;;;2.10;1.75;;;;;;;8.34;39.19;99819.88;4417416;32;34895;-64
2023/03/16 05:48:17;;;;;;;4.00;1.90;;;;;;;8.26;40.22;99821.34;4415772;32;33957;-64
2023/03/16 05:50:45;;;;;;;4.78;2.87;;;;;;;8.66;39.11;99824.13;4416263;32;33984;-64
2023/03/16 05:53:14;;;;;;;6.07;2.50;;;;;;;8.74;38.81;99828.00;4415139;32;34137;-64
2023/03/16 05:55:41;;;;;;;5.07;4.15;;;;;;;8.60;39.19;99833.37;4415230;32;33739;-68
2023/03/16 05:58:10;;;;;;;3.90;2.25;;;;;;;8.98;37.75;99833.50;4383705;32;34113;-64
2023/03/16 06:00:38;;;;;;;9.15;3.62;;;;;;;9.00;38.06;99830.75;4403124;32;35117;-64
2023/03/16 06:03:06;;;;;;;5.32;3.33;;;;;;;9.04;38.32;99841.13;4416776;32;33351;-64
2023/03/16 06:05:34;;;;;;;2.42;1.80;;;;;;;8.96;37.70;99843.47;4417053;32;32437;-65
2023/03/16 06:08:02;;;;;;;8.60;4.10;;;;;;;9.28;37.30;99851.13;4415727;32;35000;-64
2023/03/16 06:10:30;;;;;;;2.83;2.15;;;;;;;9.10;38.93;99856.72;4419785;32;33840;-64
2023/03/16 06:12:58;;;;;;;5.95;2.80;;;;;;;9.24;37.48;99857.63;4415071;32;34220;-64
2023/03/16 06:15:29;;;;;;;7.20;3.72;;;;;;;9.39;37.65;99856.59;4418717;32;35035;-66
2023/03/16 06:17:57;;;;;;;4.28;2.72;;;;;;;9.49;37.10;99860.34;4415680;32;33924;-66
2023/03/16 06:20:25;;;;;;;3.12;2.62;;;;;;;9.54;37.15;99866.22;4416590;32;34755;-65
2023/03/16 06:22:54;;;;;;;3.75;2.58;;;;;;;9.45;37.84;99864.19;4417518;32;32961;-65
2023/03/16 06:25:22;;;;;;;4.37;2.95;;;;;;;9.56;37.11;99885.66;4415385;32;32521;-64
2023/03/16 06:27:51;;;;;;;3.17;2.20;;;;;;;9.45;37.31;99880.22;4417218;32;32954;-67
2023/03/16 06:30:19;;;;;;;4.22;2.55;;;;;;;9.94;36.90;99884.00;4421114;32;33772;-64
2023/03/16 06:32:47;;;;;;;4.53;2.67;;;;;;;9.62;38.30;99884.41;4420161;32;34346;-65
2023/03/16 06:35:15;;;;;;;7.25;3.75;;;;;;;9.54;37.61;99882.25;4421882;32;34770;-64
2023/03/16 06:37:43;;;;;;;7.22;3.30;;;;;;;8.74;39.01;99885.88;4417654;32;34105;-64
2023/03/16 06:40:14;;;;;;;5.53;2.78;;;;;;;9.67;37.96;99890.28;4419893;32;34003;-65
2023/03/16 06:42:41;;;;;;;5.37;4.03;;;;;;;9.11;38.89;99892.28;4421305;32;33154;-64
2023/03/16 06:45:12;;;;;;;3.22;2.25;;;;;;;9.46;38.01;99897.09;4422101;32;33692;-63
2023/03/16 06:47:40;;;;;;;5.68;2.22;;;;;;;9.45;38.32;99903.41;4420780;32;32468;-63
2023/03/16 06:50:10;;;;;;;5.70;4.12;;;;;;;9.20;37.75;99910.37;4417143;32;33582;-67
2023/03/16 06:52:40;;;;;;;6.07;2.53;;;;;;;9.15;38.32;99907.19;4420477;32;32734;-65
2023/03/16 06:55:08;;;;;;;4.37;2.78;;;;;;;9.44;38.43;99907.91;4420101;32;33833;-65
2023/03/16 06:57:36;;;;;;;7.43;3.42;;;;;;;9.30;39.07;99919.50;4421166;32;35033;-64
2023/03/16 07:00:06;;;;;;;6.15;3.22;;;;;;;9.73;38.08;99921.09;4422340;32;34995;-65
2023/03/16 07:02:34;;;;;;;2.37;1.45;;;;;;;9.82;37.05;99920.44;4419964;32;33297;-65
2023/03/16 07:05:02;;;;;;;3.47;2.55;;;;;;;9.57;37.31;99919.47;4423444;32;34982;-64
2023/03/16 07:07:30;;;;;;;2.87;2.47;;;;;;;9.67;37.15;99921.50;4418978;32;34179;-64
2023/03/16 07:09:58;;;;;;;2.37;1.70;;;;;;;9.57;37.06;99926.63;4419082;32;32830;-64
2023/03/16 07:12:25;;;;;;;9.50;3.05;;;;;;;9.77;38.13;99941.31;4417863;32;33609;-65
2023/03/16 07:14:54;;;;;;;4.97;2.55;;;;;;;9.09;38.77;99932.47;4418950;32;35065;-66
2023/03/16 07:17:22;;;;;;;3.10;2.22;;;;;;;8.86;39.69;99949.97;4407401;32;33782;-63
2023/03/16 07:19:49;;;;;;;7.55;4.43;;;;;;;9.47;38.83;99945.09;4421645;32;34025;-62
2023/03/16 07:22:18;;;;;;;6.90;3.53;;;;;;;9.23;38.96;99946.72;4419690;32;33431;-62
2023/03/16 07:24:45;;;;;;;2.50;2.12;;;;;;;9.70;37.76;99950.72;4422707;32;35307;-65
2023/03/16 07:27:13;;;;;;;5.20;3.42;;;;;;;10.18;37.55;99956.31;4419602;32;35168;-64
2023/03/16 07:29:41;;;;;;;4.12;3.05;;;;;;;10.81;36.52;99963.41;4423801;32;33850;-61
2023/03/16 07:32:09;;;;;;;7.35;3.12;;;;;;;10.31;37.05;99959.03;4411862;32;34438;-62
2023/03/16 07:34:37;;;;;;;3.53;2.62;;;;;;;10.05;37.98;99969.69;4422154;32;33842;-61
2023/03/16 07:37:05;;;;;;;7.82;3.35;;;;;;;10.83;35.79;99968.69;4418096;32;34024;-61
2023/03/16 07:39:34;;;;;;;19.58;3.20;;;;;;;10.71;36.84;99962.37;4421927;32;33970;-62
2023/03/16 07:42:03;;;;;;;6.43;4.03;;;;;;;10.60;36.47;99968.50;4420925;32;34306;-64
2023/03/16 07:44:31;;;;;;;4.43;3.53;;;;;;;10.58;36.56;99966.91;4421048;32;33561;-63
2023/03/16 07:46:58;;;;;;;5.00;3.97;;;;;;;11.19;36.50;99960.63;4420848;32;33966;-61
2023/03/16 07:49:27;;;;;;;19.73;5.93;;;;;;;12.05;33.94;99972.09;4419998;32;34987;-62
2023/03/16 07:51:55;;;;;;;6.10;3.95;;;;;;;12.98;32.34;99967.34;4420744;32;34384;-62
2023/03/16 07:54:24;;;;;;;3.62;2.55;;;;;;;12.86;33.59;99972.88;4422226;32;33754;-62
2023/03/16 07:56:51;;;;;;;5.55;3.70;;;;;;;13.38;31.94;99974.00;4422399;32;33201;-61
2023/03/16 07:59:22;;;;;;;6.55;3.30;;;;;;;13.51;32.00;99972.00;4420839;32;33517;-62
2023/03/16 08:01:49;;;;;;;6.85;3.08;;;;;;;14.97;29.30;99978.31;4418469;32;33319;-62
2023/03/16 08:04:17;;;;;;;2.35;2.05;;;;;;;15.78;28.36;99974.47;4419537;32;35023;-62
2023/03/16 08:06:46;;;;;;;4.00;2.92;;;;;;;15.20;28.53;99969.00;4420651;32;33849;-61
2023/03/16 08:09:14;;;;;;;8.70;3.50;;;;;;;15.21;28.57;99964.47;4419869;32;33784;-61
2023/03/16 08:11:43;;;;;;;8.20;3.67;;;;;;;15.27;29.31;99966.59;4419108;32;34842;-62
2023/03/16 08:14:10;;;;;;;6.40;4.25;;;;;;;15.41;28.40;99968.91;4422003;32;34115;-61
2023/03/16 08:16:39;;;;;;;7.53;3.75;;;;;;;15.30;28.77;99979.81;4421336;32;35257;-62
2023/03/16 08:19:07;;;;;;;5.70;3.55;;;;;;;15.98;27.46;99974.47;4420040;32;33756;-61
2023/03/16 08:21:35;;;;;;;6.55;3.47;;;;;;;15.14;29.24;99983.03;4422023;32;34505;-62
2023/03/16 08:24:23;;;;;;;5.55;3.95;;;;;;;15.27;28.41;99989.03;4419946;32;33738;-61
2023/03/16 08:26:50;;;;;;;7.18;3.00;;;;;;;14.92;28.81;99992.19;4417822;32;34985;-62
2023/03/16 08:29:18;;;;;;;7.87;4.75;;;;;;;14.75;28.64;99999.06;4421660;32;33842;-63
2023/03/16 08:31:47;;;;;;;6.80;3.95;;;;;;;14.48;29.25;99996.06;4419570;32;33153;-62
2023/03/16 08:34:14;;;;;;;8.35;4.22;;;;;;;13.98;30.82;99988.69;4420270;32;34858;-61
2023/03/16 08:36:43;;;;;;;14.80;3.92;;;;;;;13.40;31.44;99982.81;4421734;32;34059;-62
2023/03/16 08:39:10;;;;;;;6.10;3.80;;;;;;;12.96;33.34;99989.94;4416605;32;33839;-61
2023/03/16 08:41:39;;;;;;;5.43;3.12;;;;;;;12.40;34.42;99993.50;4411271;32;33383;-63
2023/03/16 08:44:09;;;;;;;5.62;2.72;;;;;;;12.76;32.69;99987.03;4417343;32;34885;-62
2023/03/16 08:46:38;;;;;;;5.12;3.22;;;;;;;13.11;31.75;99986.03;4419783;32;34950;-61
2023/03/16 08:49:05;;;;;;;6.78;3.78;;;;;;;13.10;31.99;99984.31;4420677;32;35204;-61
2023/03/16 08:51:33;;;;;;;6.18;2.45;;;;;;;13.20;31.82;99993.34;4421449;32;34529;-62
2023/03/16 08:54:01;;;;;;;9.10;2.95;;;;;;;13.00;32.79;99988.72;4421536;32;33915;-61
2023/03/16 08:56:29;;;;;;;4.97;3.15;;;;;;;13.30;31.93;99980.03;4420192;32;35314;-61
2023/03/16 08:58:57;;;;;;;7.10;3.00;;;;;;;13.13;31.46;99983.19;4420116;32;33683;-61
2023/03/16 09:01:25;;;;;;;6.43;3.40;;;;;;;13.15;31.99;99987.47;4420623;32;33107;-61
2023/03/16 09:03:53;;;;;;;3.87;2.65;;;;;;;13.32;32.27;99988.81;4419342;32;33665;-61
2023/03/16 09:06:21;;;;;;;6.65;3.62;;;;;;;13.31;31.97;99987.09;4414319;32;35482;-61
2023/03/16 09:08:49;;;;;;;5.70;3.03;;;;;;;14.17;30.63;99988.81;4419638;32;33721;-62
2023/03/16 09:11:17;;;;;;;5.40;2.97;;;;;;;14.06;29.92;99983.50;4405251;32;34601;-61
2023/03/16 09:13:46;;;;;;;5.45;3.03;;;;;;;14.65;27.97;99985.56;4421298;32;32797;-61
2023/03/16 09:16:15;;;;;;;5.80;3.10;;;;;;;14.17;28.28;99998.72;4420631;32;34211;-62
2023/03/16 09:18:42;;;;;;;6.82;3.95;;;;;;;14.19;28.80;99992.22;4414694;32;34919;-61
2023/03/16 09:21:12;;;;;;;10.77;4.30;;;;;;;14.64;28.29;99997.34;4419783;32;33421;-64
2023/03/16 09:23:41;;;;;;;11.85;4.55;;;;;;;14.79;28.49;99996.97;4418333;32;33153;-64
2023/03/16 09:26:11;;;;;;;7.32;4.03;;;;;;;15.13;27.14;99998.38;4418100;32;35245;-64
2023/03/16 09:28:40;;;;;;;6.25;2.65;;;;;;;14.71;28.88;99996.81;4419394;32;33601;-61
2023/03/16 09:31:15;;;;;;;5.87;3.40;;;;;;;15.31;26.54;99998.56;4422949;32;34861;-62
2023/03/16 09:33:43;;;;;;;6.47;4.20;;;;;;;15.94;25.87;99994.66;4422932;32;33635;-63
2023/03/16 09:36:12;;;;;;;8.02;3.33;;;;;;;15.30;26.28;100001.38;4416706;32;33631;-62
2023/03/16 09:38:41;;;;;;;5.60;3.70;;;;;;;15.21;25.13;100004.91;4421337;32;33960;-63
2023/03/16 09:41:21;;;;;;;5.68;3.28;;;;;;;15.49;23.43;100008.66;4416627;32;33598;-62
2023/03/16 09:44:08;;;;;;;5.62;2.78;;;;;;;15.30;23.95;100006.78;4407223;32;33423;-64
2023/03/16 09:46:41;;;;;;;14.73;3.37;;;;;;;15.67;26.12;100006.16;4420777;32;34319;-63
2023/03/16 09:49:10;;;;;;;6.18;3.67;;;;;;;16.13;25.55;100004.59;4422453;32;32289;-62
2023/03/16 09:51:50;;;;;;;5.72;2.35;;;;;;;16.12;24.67;100000.19;4407822;32;34878;-62
2023/03/16 09:54:23;;;;;;;7.72;2.92;;;;;;;15.80;25.42;100009.44;4421563;32;34948;-62
2023/03/16 09:56:51;;;;;;;7.78;3.67;;;;;;;15.21;24.91;100004.91;4404675;32;33896;-63
2023/03/16 09:59:21;;;;;;;10.20;3.75;;;;;;;16.10;24.54;100007.56;4421885;32;32584;-65
2023/03/16 10:01:57;;;;;;;6.70;4.50;;;;;;;15.99;24.61;100014.84;4418245;32;33253;-63
2023/03/16 10:04:46;;;;;;;6.30;3.33;;;;;;;15.43;24.67;100015.44;4413696;32;33523;-63
2023/03/16 10:07:29;;;;;;;4.60;2.62;;;;;;;16.21;22.64;100010.97;4416636;32;33891;-63
2023/03/16 10:09:59;;;;;;;5.45;2.80;;;;;;;16.40;22.74;100011.91;4408405;32;34018;-63
2023/03/16 10:12:34;;;;;;;9.38;3.22;;;;;;;15.92;23.91;100005.59;4416738;32;33577;-63
2023/03/16 10:15:05;;;;;;;5.03;3.65;;;;;;;15.68;25.72;100015.97;4408421;32;32642;-63
2023/03/16 10:17:43;;;;;;;6.75;4.03;;;;;;;16.54;23.98;100014.16;4420449;32;34179;-63
2023/03/16 10:20:19;;;;;;;9.15;3.40;;;;;;;16.56;24.81;100004.03;4420969;32;33861;-63
2023/03/16 10:22:49;;;;;;;10.30;3.30;;;;;;;15.28;26.75;100017.72;4419597;32;32180;-63
2023/03/16 10:25:34;;;;;;;5.28;3.42;;;;;;;15.52;25.35;100020.00;4406338;32;34323;-62
2023/03/16 10:28:01;;;;;;;5.22;3.12;;;;;;;14.15;26.69;100022.22;4405207;32;33811;-62
2023/03/16 10:30:37;;;;;;;6.47;4.07;;;;;;;14.16;27.31;100015.88;4420720;32;33825;-63
2023/03/16 10:33:24;;;;;;;8.25;4.40;;;;;;;14.32;27.96;100015.41;4418485;32;32270;-62
2023/03/16 10:36:04;;;;;;;8.80;4.07;;;;;;;14.84;26.65;100021.66;4419522;32;34258;-61
2023/03/16 10:38:48;;;;;;;6.03;3.28;;;;;;;14.54;27.00;100028.75;4404537;32;34082;-62
2023/03/16 10:41:19;;;;;;;7.60;4.47;;;;;;;14.80;25.19;100023.78;4417019;32;33868;-63
2023/03/16 10:43:51;;;;;;;4.70;2.42;;;;;;;15.55;24.96;100014.34;4419839;32;33144;-63
2023/03/16 10:46:19;;;;;;;4.78;2.62;;;;;;;16.04;24.32;100009.84;4421295;32;34827;-63
2023/03/16 10:48:52;;;;;;;7.37;3.55;;;;;;;15.03;25.97;100012.81;4421633;32;33855;-67
2023/03/16 10:51:24;;;;;;;7.22;3.17;;;;;;;15.27;25.85;100013.28;4419697;32;33804;-64
2023/03/16 10:53:53;;;;;;;5.20;3.00;;;;;;;15.70;25.61;100006.72;4420319;32;33386;-64
2023/03/16 10:56:24;;;;;;;5.07;2.42;;;;;;;15.79;25.06;100011.28;4412141;32;34549;-65
2023/03/16 10:58:51;;;;;;;4.87;2.70;;;;;;;15.78;24.77;100006.00;4419424;32;33951;-65
2023/03/16 11:01:26;;;;;;;5.35;2.42;;;;;;;16.13;23.65;100004.59;4414875;32;34657;-64
2023/03/16 11:03:55;;;;;;;7.35;3.05;;;;;;;16.12;22.75;100002.87;4418374;32;33818;-65
2023/03/16 11:06:31;;;;;;;4.68;2.97;;;;;;;16.32;23.25;100004.56;4417033;32;34176;-65
2023/03/16 11:09:08;;;;;;;6.45;3.08;;;;;;;15.47;24.64;100005.25;4419930;32;32538;-65
2023/03/16 11:11:36;;;;;;;4.90;2.62;;;;;;;16.11;23.74;100003.88;4418697;32;33447;-65
2023/03/16 11:14:11;;;;;;;5.68;2.67;;;;;;;16.43;23.70;100009.78;4420256;32;32176;-66
2023/03/16 11:16:45;;;;;;;5.45;3.05;;;;;;;16.29;22.63;100005.69;4415533;32;33745;-65
2023/03/16 11:19:26;;;;;;;6.40;3.45;;;;;;;15.90;21.81;99994.09;4419407;32;34994;-65
2023/03/16 11:22:03;;;;;;;7.53;3.40;;;;;;;16.25;23.26;100000.72;4416803;32;34893;-63
2023/03/16 11:24:53;;;;;;;6.85;2.95;;;;;;;15.44;24.37;99995.59;4415255;32;33403;-64
2023/03/16 11:27:35;;;;;;;4.95;2.87;;;;;;;14.98;24.81;99994.34;4417187;32;34767;-64
2023/03/16 11:30:10;;;;;;;7.47;2.92;;;;;;;15.61;23.55;99996.75;4407386;32;35082;-65
2023/03/16 11:32:40;;;;;;;4.23;2.40;;;;;;;15.60;23.49;99982.41;4415268;32;33621;-65
2023/03/16 11:35:17;;;;;;;6.30;2.85;;;;;;;15.76;22.55;99986.41;4414125;32;36133;-64
2023/03/16 11:37:50;;;;;;;4.57;2.12;;;;;;;15.50;22.37;99976.13;4405958;32;34806;-65
2023/03/16 11:40:40;;;;;;;5.60;2.37;;;;;;;15.81;22.38;99982.28;4393793;32;34050;-65
2023/03/16 11:43:38;;;;;;;4.78;2.40;;;;;;;16.11;21.43;99977.72;4405308;32;35360;-65
2023/03/16 11:46:18;;;;;;;5.82;2.47;;;;;;;16.54;21.51;99971.78;4418167;32;33204;-64
2023/03/16 11:48:52;;;;;;;7.85;3.08;;;;;;;15.37;21.87;99970.16;4420532;32;33761;-64
2023/03/16 11:52:14;;;;;;;5.12;2.70;;;;;;;15.12;21.49;99977.78;4406428;32;33886;-64